createdAt,value
2019-02-25T00:00:37.503Z,7.77
2019-02-25T00:03:42.206Z,7.03
2019-02-25T00:06:46.932Z,8.80
2019-02-25T00:09:51.373Z,5.27
2019-02-25T00:12:55.813Z,5.63
2019-02-25T00:16:00.515Z,6.07
2019-02-25T00:19:05.024Z,5.97
2019-02-25T00:22:09.462Z,9.40
2019-02-25T00:25:19.339Z,9.70
2019-02-25T00:28:25.764Z,8.87
2019-02-25T00:31:30.414Z,8.20
2019-02-25T00:34:35.142Z,6.33
2019-02-25T00:37:39.577Z,8.13
2019-02-25T00:40:52.342Z,8.43
2019-02-25T00:43:56.780Z,8.07
2019-02-25T00:47:01.216Z,7.00
2019-02-25T00:50:18.150Z,7.77
2019-02-25T00:53:22.594Z,5.27
2019-02-25T00:56:27.024Z,6.13
2019-02-25T00:59:31.713Z,6.93
2019-02-25T01:02:36.142Z,5.53
2019-02-25T01:05:40.890Z,5.47
2019-02-25T01:08:45.617Z,6.50
2019-02-25T01:11:50.054Z,7.87
2019-02-25T01:14:54.771Z,9.20
2019-02-25T01:18:00.085Z,4.93
2019-02-25T01:21:04.721Z,7.03
2019-02-25T01:24:09.478Z,5.50
2019-02-25T01:27:13.912Z,5.87
2019-02-25T01:30:20.756Z,5.63
2019-02-25T01:33:25.508Z,6.70
2019-02-25T01:36:29.941Z,5.10
2019-02-25T01:39:34.385Z,7.00
2019-02-25T01:42:38.821Z,6.47
2019-02-25T01:45:43.252Z,5.83
2019-02-25T01:48:47.704Z,7.10
2019-02-25T01:51:52.137Z,7.57
2019-02-25T01:54:56.584Z,6.17
2019-02-25T01:58:01.015Z,7.67
2019-02-25T02:01:05.525Z,7.47
2019-02-25T02:04:10.141Z,5.13
2019-02-25T02:07:14.883Z,7.70
2019-02-25T02:10:19.715Z,6.73
2019-02-25T02:13:24.154Z,9.80
2019-02-25T02:16:28.599Z,4.83
2019-02-25T02:19:33.716Z,7.90
2019-02-25T02:22:40.727Z,6.47
2019-02-25T02:25:45.343Z,6.17
2019-02-25T02:28:50.045Z,6.47
2019-02-25T02:31:54.496Z,7.53
2019-02-25T02:34:59.211Z,6.13
2019-02-25T02:38:03.816Z,6.90
2019-02-25T02:41:08.266Z,7.00
2019-02-25T02:44:12.697Z,8.03
2019-02-25T02:47:51.174Z,5.50
2019-02-25T02:50:55.635Z,7.80
2019-02-25T02:54:00.365Z,7.90
2019-02-25T02:57:04.882Z,7.87
2019-02-25T03:00:16.341Z,8.13
2019-02-25T03:03:20.782Z,7.13
2019-02-25T03:06:25.220Z,6.13
2019-02-25T03:09:29.951Z,5.73
2019-02-25T03:12:34.633Z,7.07
2019-02-25T03:15:39.172Z,7.20
2019-02-25T03:18:43.842Z,6.00
2019-02-25T03:21:48.286Z,6.00
2019-02-25T03:24:52.770Z,8.60
2019-02-25T03:27:57.442Z,7.97
2019-02-25T03:31:02.263Z,9.53
2019-02-25T03:34:06.979Z,10.83
2019-02-25T03:37:12.010Z,7.37
2019-02-25T03:40:24.118Z,7.20
2019-02-25T03:43:29.462Z,8.63
2019-02-25T03:46:33.911Z,8.70
2019-02-25T03:49:38.341Z,6.53
2019-02-25T03:52:42.960Z,7.37
2019-02-25T03:55:47.404Z,6.37
2019-02-25T03:58:51.921Z,7.63
2019-02-25T04:01:59.588Z,6.83
2019-02-25T04:05:04.855Z,8.80
2019-02-25T04:08:09.345Z,6.63
2019-02-25T04:11:13.997Z,7.60
2019-02-25T04:14:18.443Z,7.70
2019-02-25T04:17:22.877Z,7.23
2019-02-25T04:20:27.317Z,8.00
2019-02-25T04:23:32.200Z,7.43
2019-02-25T04:26:36.872Z,6.47
2019-02-25T04:29:41.305Z,9.23
2019-02-25T04:32:45.891Z,6.33
2019-02-25T04:35:50.322Z,7.67
2019-02-25T04:38:54.759Z,5.57
2019-02-25T04:41:59.464Z,6.23
2019-02-25T04:45:07.856Z,6.47
2019-02-25T04:48:16.629Z,5.60
2019-02-25T04:51:23.202Z,8.53
2019-02-25T04:54:27.903Z,7.53
2019-02-25T04:57:38.581Z,6.30
2019-02-25T05:00:43.017Z,6.60
2019-02-25T05:03:47.467Z,7.73
2019-02-25T05:06:51.968Z,6.33
2019-02-25T05:09:56.396Z,6.97
2019-02-25T05:13:09.676Z,5.97
2019-02-25T05:16:14.106Z,5.50
2019-02-25T05:19:18.785Z,4.70
2019-02-25T05:22:23.396Z,6.27
2019-02-25T05:25:28.071Z,7.43
2019-02-25T05:28:32.495Z,6.93
2019-02-25T05:31:36.930Z,6.57
2019-02-25T05:34:41.650Z,6.17
2019-02-25T05:37:46.339Z,6.43
2019-02-25T05:40:50.768Z,5.83
2019-02-25T05:43:55.204Z,7.23
2019-02-25T05:46:59.898Z,7.43
2019-02-25T05:50:10.569Z,7.93
2019-02-25T05:53:15.000Z,8.77
2019-02-25T05:56:19.980Z,8.63
2019-02-25T05:59:24.758Z,9.63
2019-02-25T06:02:29.191Z,4.83
2019-02-25T06:05:33.913Z,7.53
2019-02-25T06:08:38.590Z,6.03
2019-02-25T06:11:45.909Z,6.17
2019-02-25T06:14:50.821Z,7.33
2019-02-25T06:17:57.472Z,6.97
2019-02-25T06:21:03.720Z,5.93
2019-02-25T06:24:08.799Z,5.80
2019-02-25T06:27:13.246Z,5.30
2019-02-25T06:30:20.679Z,8.60
2019-02-25T06:33:25.194Z,8.70
2019-02-25T06:36:29.733Z,9.20
2019-02-25T06:39:34.179Z,8.57
2019-02-25T06:42:41.264Z,8.93
2019-02-25T06:45:50.354Z,9.53
2019-02-25T06:48:54.795Z,6.60
2019-02-25T06:51:59.232Z,7.27
2019-02-25T06:55:04.959Z,6.90
2019-02-25T06:58:09.797Z,11.20
2019-02-25T07:01:14.245Z,9.53
2019-02-25T07:04:29.067Z,10.47
2019-02-25T07:07:41.080Z,8.90
2019-02-25T07:10:47.169Z,11.73
2019-02-25T07:13:53.628Z,12.77
2019-02-25T07:16:59.995Z,9.00
2019-02-25T07:20:07.279Z,10.20
2019-02-25T07:23:13.357Z,19.23
2019-02-25T07:26:35.847Z,13.60
2019-02-25T07:29:58.187Z,22.73
2019-02-25T07:33:04.268Z,70.97
2019-02-25T07:36:19.578Z,49.00
2019-02-25T07:39:40.911Z,34.47
2019-02-25T07:43:03.253Z,20.80
2019-02-25T07:46:12.479Z,20.17
2019-02-25T07:49:27.267Z,23.47
2019-02-25T07:52:33.354Z,20.13
2019-02-25T07:55:39.786Z,18.67
2019-02-25T07:58:57.444Z,12.87
2019-02-25T08:02:06.164Z,16.70
2019-02-25T08:05:12.250Z,18.63
2019-02-25T08:08:33.103Z,17.17
2019-02-25T08:11:37.634Z,15.87
2019-02-25T08:14:46.393Z,18.07
2019-02-25T08:17:55.387Z,16.50
2019-02-25T08:21:17.427Z,14.30
2019-02-25T08:24:39.307Z,14.63
2019-02-25T08:27:54.561Z,16.80
2019-02-25T08:30:58.779Z,14.50
2019-02-25T08:34:20.808Z,11.83
2019-02-25T08:37:49.768Z,20.07
2019-02-25T08:41:06.504Z,11.00
2019-02-25T08:44:16.864Z,11.27
2019-02-25T08:47:26.020Z,13.23
2019-02-25T08:50:30.465Z,9.33
2019-02-25T08:53:35.152Z,6.17
2019-02-25T08:56:39.610Z,11.37
2019-02-25T08:59:44.044Z,7.63
2019-02-25T09:02:48.487Z,9.93
2019-02-25T09:05:52.931Z,13.83
2019-02-25T09:08:57.365Z,8.90
2019-02-25T09:12:01.822Z,9.83
2019-02-25T09:15:11.461Z,14.73
2019-02-25T09:18:15.905Z,9.10
2019-02-25T09:21:20.700Z,9.83
2019-02-25T09:24:25.178Z,11.93
2019-02-25T09:27:29.968Z,10.50
2019-02-25T09:30:34.395Z,13.20
2019-02-25T09:33:38.841Z,10.10
2019-02-25T09:36:43.537Z,12.97
2019-02-25T09:39:47.972Z,10.07
2019-02-25T09:42:52.686Z,7.23
2019-02-25T09:45:57.114Z,8.20
2019-02-25T09:49:01.837Z,6.20
2019-02-25T09:52:06.569Z,7.73
2019-02-25T09:55:14.109Z,12.40
2019-02-25T09:58:18.897Z,8.37
2019-02-25T10:01:23.632Z,7.80
2019-02-25T10:04:28.370Z,5.43
2019-02-25T10:07:33.090Z,7.10
2019-02-25T10:10:37.817Z,7.43
2019-02-25T10:13:42.272Z,8.97
2019-02-25T10:16:46.721Z,6.77
2019-02-25T10:19:51.163Z,6.17
2019-02-25T10:22:55.676Z,8.30
2019-02-25T10:26:00.166Z,8.50
2019-02-25T10:29:04.879Z,10.20
2019-02-25T10:32:09.317Z,6.03
2019-02-25T10:35:28.062Z,10.57
2019-02-25T10:38:32.791Z,6.57
2019-02-25T10:41:37.516Z,12.30
2019-02-25T10:44:41.973Z,8.73
2019-02-25T10:47:47.443Z,8.40
2019-02-25T10:50:55.974Z,7.27
2019-02-25T10:53:59.135Z,6.67
2019-02-25T10:57:03.840Z,9.23
2019-02-25T11:00:14.009Z,6.30
2019-02-25T11:03:20.039Z,9.40
2019-02-25T11:06:26.710Z,7.13
2019-02-25T11:09:50.372Z,6.87
2019-02-25T11:12:57.170Z,8.73
2019-02-25T11:16:01.508Z,9.63
2019-02-25T11:19:06.442Z,6.17
2019-02-25T11:22:12.151Z,7.00
2019-02-25T11:25:19.293Z,5.93
2019-02-25T11:28:26.087Z,6.83
2019-02-25T11:31:30.311Z,10.80
2019-02-25T11:34:35.737Z,6.97
2019-02-25T11:37:41.173Z,8.50
2019-02-25T11:40:45.626Z,6.27
2019-02-25T11:43:52.570Z,4.90
2019-02-25T11:46:56.246Z,6.13
2019-02-25T11:50:00.692Z,9.20
2019-02-25T11:53:05.439Z,6.37
2019-02-25T11:56:10.179Z,7.27
2019-02-25T11:59:14.911Z,7.87
2019-02-25T12:02:25.641Z,5.30
2019-02-25T12:05:25.834Z,6.23
2019-02-25T12:08:30.284Z,7.40
2019-02-25T12:11:34.739Z,12.10
2019-02-25T12:14:39.194Z,5.47
2019-02-25T12:17:43.904Z,8.67
2019-02-25T12:20:48.351Z,5.00
2019-02-25T12:23:52.798Z,7.83
2019-02-25T12:26:57.251Z,8.30
2019-02-25T12:30:01.708Z,5.17
2019-02-25T12:33:06.142Z,7.73
2019-02-25T12:36:10.597Z,4.47
2019-02-25T12:39:15.125Z,13.87
2019-02-25T12:42:19.564Z,5.37
2019-02-25T12:45:24.336Z,6.90
2019-02-25T12:48:29.160Z,8.00
2019-02-25T12:51:33.889Z,7.13
2019-02-25T12:54:38.624Z,9.67
2019-02-25T12:57:43.355Z,9.30
2019-02-25T13:00:49.505Z,4.93
2019-02-25T13:03:54.248Z,6.53
2019-02-25T13:06:58.980Z,6.22
2019-02-25T13:10:03.916Z,6.47
2019-02-25T13:13:08.644Z,6.05
2019-02-25T13:16:13.097Z,3.90
2019-02-25T13:19:18.403Z,6.85
2019-02-25T13:22:22.868Z,5.75
2019-02-25T13:25:31.259Z,5.97
2019-02-25T13:28:35.704Z,5.07
2019-02-25T13:31:40.514Z,7.60
2019-02-25T13:34:44.962Z,3.90
2019-02-25T13:37:49.472Z,4.97
2019-02-25T13:40:53.912Z,7.37
2019-02-25T13:43:58.620Z,6.62
2019-02-25T13:47:03.345Z,9.45
2019-02-25T13:50:12.777Z,5.37
2019-02-25T13:53:17.524Z,12.45
2019-02-25T13:56:21.986Z,6.20
2019-02-25T13:59:26.426Z,9.53
2019-02-25T14:02:30.950Z,8.55
2019-02-25T14:05:36.052Z,6.33
2019-02-25T14:08:40.534Z,6.53
2019-02-25T14:11:45.194Z,5.40
2019-02-25T14:14:50.227Z,6.40
2019-02-25T14:17:54.761Z,6.12
2019-02-25T14:20:59.376Z,5.75
2019-02-25T14:24:04.111Z,5.05
2019-02-25T14:27:08.769Z,5.42
2019-02-25T14:30:17.672Z,7.28
2019-02-25T14:33:23.549Z,7.72
2019-02-25T14:36:29.176Z,3.75
2019-02-25T14:39:35.970Z,4.25
2019-02-25T14:42:44.649Z,5.05
2019-02-25T14:45:49.779Z,4.85
2019-02-25T14:48:53.528Z,5.28
2019-02-25T14:51:57.975Z,2.95
2019-02-25T14:55:04.781Z,2.83
2019-02-25T14:58:10.568Z,2.02
2019-02-25T15:01:15.114Z,4.62
2019-02-25T15:04:20.046Z,3.00
2019-02-25T15:07:26.525Z,6.17
2019-02-25T15:10:31.674Z,2.70
2019-02-25T15:13:38.822Z,9.43
2019-02-25T15:16:43.682Z,4.10
2019-02-25T15:19:48.116Z,3.13
2019-02-25T15:22:52.553Z,2.60
2019-02-25T15:26:04.985Z,3.87
2019-02-25T15:29:04.803Z,4.20
2019-02-25T15:32:09.413Z,8.13
2019-02-25T15:35:14.119Z,6.17
2019-02-25T15:38:18.948Z,5.53
2019-02-25T15:41:23.879Z,5.53
2019-02-25T15:44:28.322Z,5.40
2019-02-25T15:47:33.034Z,5.83
2019-02-25T15:50:37.871Z,5.07
2019-02-25T15:53:46.216Z,5.93
2019-02-25T15:56:48.945Z,4.70
2019-02-25T15:59:53.390Z,4.47
2019-02-25T16:02:58.634Z,7.60
2019-02-25T16:06:05.736Z,7.57
2019-02-25T16:09:10.248Z,4.97
2019-02-25T16:12:14.686Z,7.00
2019-02-25T16:15:21.215Z,9.63
2019-02-25T16:18:27.806Z,10.80
2019-02-25T16:21:31.888Z,6.17
2019-02-25T16:24:36.582Z,9.73
2019-02-25T16:27:41.677Z,28.27
2019-02-25T16:30:48.970Z,6.57
2019-02-25T16:33:55.089Z,7.97
2019-02-25T16:37:00.383Z,3.50
2019-02-25T16:40:12.615Z,7.17
2019-02-25T16:43:18.969Z,5.00
2019-02-25T16:46:24.017Z,5.40
2019-02-25T16:49:29.497Z,4.57
2019-02-25T16:52:36.060Z,10.10
2019-02-25T16:55:42.779Z,4.37
2019-02-25T16:58:47.739Z,5.10
2019-02-25T17:01:55.817Z,4.53
2019-02-25T17:04:59.310Z,4.47
2019-02-25T17:08:05.752Z,4.27
2019-02-25T17:11:12.535Z,4.60
2019-02-25T17:14:19.017Z,4.77
2019-02-25T17:17:24.871Z,8.03
2019-02-25T17:20:29.363Z,4.70
2019-02-25T17:23:34.525Z,4.90
2019-02-25T17:26:40.206Z,7.40
2019-02-25T17:29:46.836Z,5.23
2019-02-25T17:32:51.580Z,9.10
2019-02-25T17:35:56.306Z,6.03
2019-02-25T17:39:00.746Z,4.10
2019-02-25T17:42:08.034Z,6.90
2019-02-25T17:45:22.433Z,7.73
2019-02-25T17:48:27.095Z,7.90
2019-02-25T17:51:31.557Z,5.50
2019-02-25T17:54:37.753Z,7.27
2019-02-25T17:57:43.527Z,5.50
2019-02-25T18:00:48.071Z,6.03
2019-02-25T18:03:52.516Z,8.37
2019-02-25T18:06:56.978Z,8.53
2019-02-25T18:10:03.456Z,7.10
2019-02-25T18:13:08.588Z,10.50
2019-02-25T18:16:16.278Z,9.17
2019-02-25T18:19:22.624Z,8.93
2019-02-25T18:22:27.124Z,7.67
2019-02-25T18:25:31.877Z,6.70
2019-02-25T18:28:37.474Z,14.93
2019-02-25T18:31:42.481Z,9.97
2019-02-25T18:34:46.918Z,10.33
2019-02-25T18:37:51.755Z,12.70
2019-02-25T18:40:58.650Z,5.97
2019-02-25T18:44:04.823Z,6.43
2019-02-25T18:47:09.371Z,5.97
2019-02-25T18:50:19.929Z,7.07
2019-02-25T18:53:25.528Z,9.97
2019-02-25T18:56:31.553Z,6.47
2019-02-25T18:59:36.283Z,7.93
2019-02-25T19:02:42.281Z,4.73
2019-02-25T19:05:46.838Z,7.47
2019-02-25T19:08:51.645Z,5.20
2019-02-25T19:11:58.126Z,7.03
2019-02-25T19:15:04.748Z,7.30
2019-02-25T19:18:10.950Z,7.67
2019-02-25T19:21:15.850Z,9.97
2019-02-25T19:24:20.289Z,7.73
2019-02-25T19:27:25.673Z,7.77
2019-02-25T19:30:32.103Z,12.40
2019-02-25T19:33:37.642Z,11.73
2019-02-25T19:36:42.382Z,11.13
2019-02-25T19:39:48.826Z,14.10
2019-02-25T19:42:54.246Z,16.20
2019-02-25T19:46:01.661Z,11.37
2019-02-25T19:49:05.880Z,11.33
2019-02-25T19:52:12.096Z,12.17
2019-02-25T19:55:18.353Z,8.97
2019-02-25T19:58:24.241Z,16.53
2019-02-25T20:01:29.441Z,12.80
2019-02-25T20:04:35.937Z,11.07
2019-02-25T20:07:40.943Z,9.47
2019-02-25T20:10:45.384Z,13.17
2019-02-25T20:13:50.097Z,17.07
2019-02-25T20:16:54.610Z,20.97
2019-02-25T20:19:59.113Z,21.10
2019-02-25T20:23:04.433Z,20.50
2019-02-25T20:26:13.266Z,23.73
2019-02-25T20:29:15.904Z,19.10
2019-02-25T20:32:20.766Z,23.10
2019-02-25T20:35:27.247Z,21.40
2019-02-25T20:38:32.612Z,13.03
2019-02-25T20:41:38.199Z,14.70
2019-02-25T20:44:42.946Z,18.93
2019-02-25T20:47:48.367Z,18.67
2019-02-25T20:50:53.931Z,12.63
2019-02-25T20:53:58.670Z,14.13
2019-02-25T20:57:03.480Z,12.27
2019-02-25T21:00:19.926Z,13.33
2019-02-25T21:03:25.829Z,14.70
2019-02-25T21:06:33.052Z,15.90
2019-02-25T21:09:40.395Z,13.50
2019-02-25T21:12:45.796Z,15.73
2019-02-25T21:15:50.322Z,14.37
2019-02-25T21:18:55.065Z,22.27
2019-02-25T21:22:04.301Z,12.07
2019-02-25T21:25:13.479Z,14.90
2019-02-25T21:28:17.930Z,15.67
2019-02-25T21:31:24.003Z,12.43
2019-02-25T21:34:30.490Z,15.00
2019-02-25T21:37:34.751Z,15.93
2019-02-25T21:40:39.200Z,13.90
2019-02-25T21:43:45.390Z,17.67
2019-02-25T21:46:53.800Z,11.27
2019-02-25T21:49:58.779Z,11.87
2019-02-25T21:53:04.863Z,9.87
2019-02-25T21:56:09.225Z,12.67
2019-02-25T21:59:15.074Z,11.33
2019-02-25T22:02:20.625Z,11.03
2019-02-25T22:05:25.084Z,12.03
2019-02-25T22:08:31.392Z,17.07
2019-02-25T22:11:35.957Z,10.70
2019-02-25T22:14:41.184Z,13.33
2019-02-25T22:17:48.311Z,13.47
2019-02-25T22:20:53.311Z,11.10
2019-02-25T22:24:01.355Z,8.97
2019-02-25T22:27:04.354Z,10.90
2019-02-25T22:30:20.506Z,10.23
2019-02-25T22:33:27.853Z,16.90
2019-02-25T22:36:31.927Z,8.87
2019-02-25T22:39:36.946Z,13.50
2019-02-25T22:42:41.471Z,13.37
2019-02-25T22:45:45.917Z,10.67
2019-02-25T22:48:50.352Z,8.67
2019-02-25T22:51:57.766Z,13.60
2019-02-25T22:55:05.812Z,16.53
2019-02-25T22:58:10.422Z,9.70
2019-02-25T23:01:17.962Z,11.83
2019-02-25T23:04:22.508Z,13.07
2019-02-25T23:07:27.322Z,8.60
2019-02-25T23:10:31.753Z,8.03
2019-02-25T23:13:36.189Z,10.40
2019-02-25T23:16:41.592Z,8.77
2019-02-25T23:19:46.973Z,9.80
2019-02-25T23:22:52.915Z,10.00
2019-02-25T23:25:58.445Z,7.83
2019-02-25T23:29:03.309Z,11.90
2019-02-25T23:32:08.125Z,9.17
2019-02-25T23:35:15.603Z,8.37
2019-02-25T23:38:19.019Z,8.60
2019-02-25T23:41:23.462Z,7.90
2019-02-25T23:44:28.175Z,9.87
2019-02-25T23:47:34.028Z,12.13
2019-02-25T23:50:39.377Z,6.97
2019-02-25T23:53:44.118Z,10.97
2019-02-25T23:56:50.232Z,8.70
2019-02-25T23:59:55.756Z,10.93
